This is the latest recevied weather packets stored in our database for station/object CT1ETE-13. If no packets are shown the sender has not sent any weather packets the latest 10 day(s).
| Time | Temp. | Humidity | Pressure | Rain* | Wind** | Luminosity | Snow |
|---|---|---|---|---|---|---|---|
| 1788099095 | 23.89° C | 55% | 1020.4 hPa | 0.25 mm | - | 1434 W/m² | - |
| 1788098195 | 23.89° C | 55% | 1020.5 hPa | 0.25 mm | - | 1440 W/m² | - |
| 1788097294 | 23.33° C | 59% | 1020.6 hPa | 0.25 mm | - | 1450 W/m² | - |
| 1788096450 | 22.78° C | 58% | 1020.7 hPa | 0.25 mm | - | 1461 W/m² | - |
| 1788095550 | 22.78° C | 61% | 1020.6 hPa | 0 mm | - | 1459 W/m² | - |
| 1788094651 | 22.78° C | 63% | 1020.7 hPa | 0 mm | - | 1457 W/m² | - |
| 1788093688 | 23.33° C | 61% | 1020.8 hPa | 0 mm | - | 1452 W/m² | - |
| 1788092786 | 23.33° C | 64% | 1020.8 hPa | 0 mm | - | 1454 W/m² | - |
| 1788091887 | 22.78° C | 64% | 1020.9 hPa | 0 mm | - | 1454 W/m² | - |
| 1788090986 | 22.78° C | 67% | 1021 hPa | 0 mm | - | 1455 W/m² | - |
| 1788090086 | 21.67° C | 69% | 1021 hPa | 0 mm | - | 1468 W/m² | - |
| 1788089186 | 21.11° C | 71% | 1021.2 hPa | 0 mm | - | 1470 W/m² | - |
| 1788088284 | 21.67° C | 70% | 1021.2 hPa | 0 mm | - | 1457 W/m² | - |
| 1788087384 | 21.11° C | 69% | 1021.2 hPa | 0 mm | - | 1459 W/m² | - |
| 1788086484 | 21.67° C | 72% | 1021.1 hPa | 0 mm | - | 1455 W/m² | - |
| 1788085584 | 20.56° C | 76% | 1021 hPa | 0 mm | - | 1463 W/m² | - |
| 1788084683 | 21.11° C | 77% | 1021 hPa | 0 mm | - | 1461 W/m² | - |
| 1788083778 | 20.56° C | 80% | 1020.9 hPa | 0 mm | - | 1470 W/m² | - |
| 1788082883 | 20° C | 82% | 1020.8 hPa | 0 mm | - | 1482 W/m² | - |
| 1788081977 | 18.89° C | 83% | 1020.7 hPa | 0 mm | - | 1503 W/m² | - |
| 1788081079 | 18.33° C | 76% | 1020.6 hPa | 0 mm | - | 1510 W/m² | - |
| 1788080236 | 18.33° C | 68% | 1020.6 hPa | 0 mm | - | 1513 W/m² | - |
| 1788079277 | 18.33° C | 59% | 1020.4 hPa | 0 mm | - | 1513 W/m² | - |
| 1788078370 | 18.33° C | 54% | 1020.2 hPa | 0 mm | - | 1513 W/m² | - |
| 1788077468 | 17.78° C | 55% | 1020.2 hPa | 0 mm | - | 1515 W/m² | - |
* Rain latest hour (hover to see other rain measurements)
** Current wind speed in m/s (hover to see current wind gust speed)